Time;durP1;ratioP1;P1;durP2;ratioP2;P2;SDS_P1;SDS_P2;PMS_P1;PMS_P2;Temp;Humidity;BMP_temperature;BMP_pressure;BME280_temperature;BME280_humidity;BME280_pressure;Samples;Min_cycle;Max_cycle;Signal;HPM_P1;HPM_P2
2021/09/21 00:00:41;;;;;;;12.43;11.33;;;13.70;99.90;;;;;;5033644;28;20183;-64
2021/09/21 00:03:07;;;;;;;10.83;10.03;;;13.60;99.90;;;;;;5031400;28;20571;-63
2021/09/21 00:05:33;;;;;;;12.13;11.23;;;13.60;99.90;;;;;;5046239;28;20206;-64
2021/09/21 00:07:58;;;;;;;12.00;11.00;;;13.60;99.90;;;;;;5053933;28;20194;-64
2021/09/21 00:10:24;;;;;;;12.17;11.13;;;13.60;99.90;;;;;;5052905;28;20171;-64
2021/09/21 00:12:50;;;;;;;11.43;10.50;;;13.60;99.90;;;;;;5055002;28;20197;-63
2021/09/21 00:15:17;;;;;;;11.10;10.30;;;13.60;99.90;;;;;;5042024;28;20527;-63
2021/09/21 00:17:44;;;;;;;11.20;10.40;;;13.60;99.90;;;;;;5034769;28;20203;-63
2021/09/21 00:20:11;;;;;;;10.93;10.13;;;13.60;99.90;;;;;;5044346;28;20190;-63
2021/09/21 00:22:37;;;;;;;12.00;10.80;;;13.60;99.90;;;;;;5054762;28;20179;-63
2021/09/21 00:25:03;;;;;;;11.97;10.57;;;13.60;99.90;;;;;;5046079;28;20210;-64
2021/09/21 00:27:29;;;;;;;11.03;10.10;;;13.60;99.90;;;;;;5034776;28;20275;-63
2021/09/21 00:29:54;;;;;;;11.93;10.87;;;13.60;99.90;;;;;;5040957;28;20245;-63
2021/09/21 00:32:25;;;;;;;13.33;10.17;;;13.60;99.90;;;;;;5049672;28;20198;-64
2021/09/21 00:34:50;;;;;;;11.13;10.33;;;13.60;99.90;;;;;;5034630;28;20508;-63
2021/09/21 00:37:16;;;;;;;12.00;11.00;;;13.60;99.90;;;;;;5051647;28;20286;-63
2021/09/21 00:39:43;;;;;;;11.90;10.80;;;13.60;99.90;;;;;;5054170;28;20186;-63
2021/09/21 00:42:09;;;;;;;10.90;10.00;;;13.60;99.90;;;;;;5038411;28;20179;-63
2021/09/21 00:44:36;;;;;;;11.05;10.15;;;13.60;99.90;;;;;;5034464;28;20168;-63
2021/09/21 00:47:06;;;;;;;12.37;10.80;;;13.50;99.90;;;;;;5048395;28;20194;-63
2021/09/21 00:49:33;;;;;;;11.23;10.33;;;13.50;99.90;;;;;;5053996;28;20171;-64
2021/09/21 00:52:00;;;;;;;11.00;10.10;;;13.50;99.90;;;;;;5040952;28;20175;-64
2021/09/21 00:54:27;;;;;;;11.93;10.93;;;13.50;99.90;;;;;;5034237;28;20175;-64
2021/09/21 00:56:55;;;;;;;11.07;10.30;;;13.60;99.90;;;;;;5045633;28;20198;-63
2021/09/21 00:59:21;;;;;;;11.80;10.63;;;13.50;99.90;;;;;;5053983;28;20179;-64
2021/09/21 01:01:47;;;;;;;11.50;10.43;;;13.50;99.90;;;;;;5038161;28;20187;-63
2021/09/21 01:04:12;;;;;;;11.23;9.97;;;13.60;99.90;;;;;;5034005;28;20184;-64
2021/09/21 01:06:38;;;;;;;11.47;10.47;;;13.60;99.90;;;;;;5047656;28;20213;-63
2021/09/21 01:09:04;;;;;;;11.67;10.77;;;13.70;99.90;;;;;;5053739;28;20167;-64
2021/09/21 01:11:30;;;;;;;11.63;10.77;;;13.60;99.90;;;;;;5042626;28;20167;-64
2021/09/21 01:13:55;;;;;;;12.20;11.07;;;13.60;99.90;;;;;;5034059;28;20175;-63
2021/09/21 01:16:22;;;;;;;11.03;10.03;;;13.70;99.90;;;;;;5043832;28;20183;-64
2021/09/21 01:18:49;;;;;;;11.20;10.30;;;13.70;99.90;;;;;;5053015;28;20578;-64
2021/09/21 01:21:15;;;;;;;13.07;10.43;;;13.70;99.90;;;;;;5044785;28;20270;-63
2021/09/21 01:23:50;;;;;;;11.40;10.17;;;13.70;99.90;;;;;;5033630;28;20179;-63
2021/09/21 01:26:17;;;;;;;11.23;10.20;;;13.70;99.90;;;;;;5013721;28;20680;-64
2021/09/21 01:28:44;;;;;;;11.10;10.20;;;13.70;99.90;;;;;;5026539;28;20178;-64
2021/09/21 01:31:09;;;;;;;11.87;10.87;;;13.80;99.90;;;;;;5053305;28;20660;-63
2021/09/21 01:33:35;;;;;;;12.00;11.10;;;13.80;99.90;;;;;;5048694;28;20176;-64
2021/09/21 01:36:00;;;;;;;11.60;10.60;;;13.80;99.90;;;;;;5033601;28;20543;-64
2021/09/21 01:38:26;;;;;;;10.57;9.67;;;13.80;99.90;;;;;;5035686;28;20191;-63
2021/09/21 01:40:52;;;;;;;11.47;10.43;;;13.80;99.90;;;;;;5053176;28;20178;-63
2021/09/21 01:43:17;;;;;;;10.83;9.77;;;13.80;99.90;;;;;;5052360;28;20253;-63
2021/09/21 01:45:43;;;;;;;12.03;9.80;;;13.70;99.90;;;;;;5033321;28;20203;-64
2021/09/21 01:48:09;;;;;;;11.60;10.70;;;13.70;99.90;;;;;;5032605;28;20194;-63
2021/09/21 01:51:09;;;;;;;12.37;10.70;;;13.60;99.90;;;;;;5051655;28;20170;-63
2021/09/21 02:01:04;;;;;;;11.40;10.37;;;13.60;99.90;;;;;;5032778;28;20262;-63
2021/09/21 02:03:30;;;;;;;10.97;10.03;;;13.60;99.90;;;;;;5032992;28;20175;-63
2021/09/21 02:05:56;;;;;;;10.83;9.93;;;13.60;99.90;;;;;;5052499;28;20209;-64
2021/09/21 02:08:21;;;;;;;11.37;10.43;;;13.50;99.90;;;;;;5052687;28;20190;-63
2021/09/21 02:10:47;;;;;;;11.87;10.87;;;13.60;99.90;;;;;;5034717;28;20647;-68
2021/09/21 02:13:13;;;;;;;11.30;10.40;;;13.50;99.90;;;;;;5034379;28;20179;-66
2021/09/21 02:15:38;;;;;;;11.03;10.13;;;13.50;99.90;;;;;;5050010;28;20205;-68
2021/09/21 02:18:05;;;;;;;10.57;9.63;;;13.50;99.90;;;;;;5053515;28;20238;-68
2021/09/21 02:20:31;;;;;;;11.00;10.10;;;13.50;99.90;;;;;;5038570;28;20186;-68
2021/09/21 02:22:56;;;;;;;10.80;10.00;;;13.40;99.90;;;;;;5042805;28;20186;-68
2021/09/21 02:25:22;;;;;;;12.73;11.10;;;13.40;99.90;;;;;;5053681;28;20199;-66
2021/09/21 02:27:48;;;;;;;11.43;10.40;;;13.40;99.90;;;;;;5046161;28;20200;-67
2021/09/21 02:30:14;;;;;;;11.33;10.33;;;13.50;99.90;;;;;;5031269;28;20175;-69
2021/09/21 02:32:40;;;;;;;11.67;10.67;;;13.50;99.90;;;;;;5039695;28;20185;-67
2021/09/21 02:35:06;;;;;;;11.30;10.30;;;13.50;99.90;;;;;;5055035;28;20324;-69
2021/09/21 02:37:31;;;;;;;11.30;10.40;;;13.50;99.90;;;;;;5056478;28;20197;-68
2021/09/21 02:39:57;;;;;;;10.70;9.90;;;13.50;99.90;;;;;;5054599;28;20171;-69
2021/09/21 02:42:23;;;;;;;11.13;10.23;;;13.50;99.90;;;;;;5052505;28;20191;-65
2021/09/21 02:44:49;;;;;;;11.30;10.20;;;13.40;99.90;;;;;;5054170;28;20178;-69
2021/09/21 02:47:14;;;;;;;10.87;9.97;;;13.40;99.90;;;;;;5035358;28;20571;-68
2021/09/21 02:49:40;;;;;;;11.03;10.10;;;13.40;99.90;;;;;;5033861;28;20259;-66
2021/09/21 02:52:06;;;;;;;12.33;11.10;;;13.50;99.90;;;;;;5033859;28;20642;-69
2021/09/21 02:54:32;;;;;;;12.33;11.33;;;13.50;99.90;;;;;;5033617;28;20262;-66
2021/09/21 02:56:57;;;;;;;13.43;10.47;;;13.50;99.90;;;;;;5050029;28;20572;-69
2021/09/21 02:59:23;;;;;;;12.27;10.97;;;13.40;99.90;;;;;;5053636;28;20171;-67
2021/09/21 03:01:49;;;;;;;11.73;10.83;;;13.40;99.90;;;;;;5037758;28;20646;-67
2021/09/21 03:04:37;;;;;;;11.53;10.43;;;13.40;99.90;;;;;;5033640;28;20168;-68
2021/09/21 03:07:06;;;;;;;11.93;10.73;;;13.30;99.90;;;;;;5049499;28;20234;-66
2021/09/21 03:17:27;;;;;;;11.20;10.40;;;13.20;99.90;;;;;;5050838;28;20236;-68
2021/09/21 03:19:54;;;;;;;11.03;10.03;;;13.30;99.90;;;;;;5036822;28;20211;-67
2021/09/21 03:22:21;;;;;;;11.27;10.37;;;13.30;99.90;;;;;;5033117;28;20255;-68
2021/09/21 03:24:46;;;;;;;11.37;10.37;;;13.30;99.90;;;;;;5047103;28;20214;-68
2021/09/21 03:27:12;;;;;;;12.33;11.23;;;13.30;99.90;;;;;;5052682;28;20234;-69
2021/09/21 03:29:38;;;;;;;10.70;9.73;;;13.30;99.90;;;;;;5039556;28;20179;-70
2021/09/21 03:32:04;;;;;;;11.63;10.73;;;13.30;99.90;;;;;;5033045;28;20542;-68
2021/09/21 03:34:31;;;;;;;11.27;10.27;;;13.20;99.90;;;;;;5043527;28;20202;-68
2021/09/21 03:36:57;;;;;;;11.00;10.10;;;13.20;99.90;;;;;;5033427;28;20209;-68
2021/09/21 03:39:23;;;;;;;11.17;10.07;;;13.10;99.90;;;;;;5041783;28;20269;-68
2021/09/21 03:41:49;;;;;;;10.43;9.63;;;13.10;99.90;;;;;;5053689;28;20620;-67
2021/09/21 03:44:14;;;;;;;11.20;10.20;;;13.10;99.90;;;;;;5049029;28;20175;-67
2021/09/21 03:46:40;;;;;;;11.07;10.03;;;13.00;99.90;;;;;;5041646;28;20702;-68
2021/09/21 03:49:06;;;;;;;11.07;10.17;;;12.90;99.90;;;;;;5056525;28;20170;-68
2021/09/21 03:51:31;;;;;;;11.30;10.27;;;12.80;99.90;;;;;;5051830;28;20202;-68
2021/09/21 03:53:57;;;;;;;11.53;10.63;;;12.70;99.90;;;;;;5036608;28;20197;-66
2021/09/21 03:56:23;;;;;;;12.00;10.83;;;12.60;99.90;;;;;;5037892;28;20171;-69
2021/09/21 03:58:48;;;;;;;12.00;10.90;;;12.60;99.90;;;;;;5056329;28;20631;-65
2021/09/21 04:01:14;;;;;;;12.03;10.93;;;12.60;99.90;;;;;;5053892;28;20183;-65
2021/09/21 04:03:40;;;;;;;11.37;10.23;;;12.60;99.90;;;;;;5035328;28;20181;-65
2021/09/21 04:06:06;;;;;;;11.47;10.57;;;12.60;99.90;;;;;;5035192;28;20679;-64
2021/09/21 04:08:31;;;;;;;11.90;10.97;;;12.60;99.90;;;;;;5052884;28;20209;-65
2021/09/21 04:10:57;;;;;;;11.80;10.73;;;12.60;99.90;;;;;;5054789;28;20179;-65
2021/09/21 04:13:22;;;;;;;11.27;10.13;;;12.60;99.90;;;;;;5054979;28;20189;-65
2021/09/21 04:15:48;;;;;;;11.03;10.00;;;12.60;99.90;;;;;;5041167;28;20538;-65
2021/09/21 04:18:13;;;;;;;11.37;10.43;;;12.60;99.90;;;;;;5034962;28;20215;-65
2021/09/21 04:20:39;;;;;;;11.30;10.30;;;12.70;99.90;;;;;;5046374;28;20214;-65
2021/09/21 04:23:05;;;;;;;11.23;10.20;;;12.70;99.90;;;;;;5055013;28;20229;-65
2021/09/21 04:25:31;;;;;;;11.60;10.70;;;12.70;99.90;;;;;;5044373;28;20669;-65
2021/09/21 04:27:57;;;;;;;10.67;9.73;;;12.70;99.90;;;;;;5034930;28;20680;-65
2021/09/21 04:30:23;;;;;;;10.87;9.87;;;12.60;99.90;;;;;;5042917;28;20193;-65
2021/09/21 04:32:49;;;;;;;11.73;10.80;;;12.60;99.90;;;;;;5054623;28;20742;-65
2021/09/21 04:35:16;;;;;;;10.47;9.57;;;12.60;99.90;;;;;;5041242;28;20184;-65
2021/09/21 04:37:42;;;;;;;11.87;10.87;;;12.60;99.90;;;;;;5034618;28;20237;-65
2021/09/21 04:40:09;;;;;;;10.90;10.00;;;12.60;99.90;;;;;;5051548;28;20253;-65
2021/09/21 04:42:35;;;;;;;10.67;9.67;;;12.40;99.90;;;;;;5050058;28;20187;-65
2021/09/21 04:45:01;;;;;;;11.40;10.37;;;12.50;99.90;;;;;;5034613;28;20195;-65
2021/09/21 04:47:26;;;;;;;11.57;10.67;;;12.50;99.90;;;;;;5034064;28;20202;-65
2021/09/21 04:49:52;;;;;;;12.90;11.67;;;12.60;99.90;;;;;;5054096;28;20171;-65
2021/09/21 04:52:18;;;;;;;11.93;11.03;;;12.50;99.90;;;;;;5053311;28;20178;-65
2021/09/21 04:54:44;;;;;;;12.03;10.93;;;12.60;99.90;;;;;;5033307;28;20258;-65
2021/09/21 04:57:10;;;;;;;11.47;10.40;;;12.60;99.90;;;;;;5034337;28;20195;-65
2021/09/21 04:59:36;;;;;;;10.53;9.73;;;12.60;99.90;;;;;;5052952;28;20205;-65
2021/09/21 05:02:02;;;;;;;11.77;10.30;;;12.60;99.90;;;;;;5054125;28;20538;-65
2021/09/21 05:04:27;;;;;;;11.87;10.87;;;12.60;99.90;;;;;;5036280;28;20663;-65
2021/09/21 05:06:53;;;;;;;11.77;10.70;;;12.50;99.90;;;;;;5034072;28;20679;-65
2021/09/21 05:09:18;;;;;;;11.77;10.73;;;12.50;99.90;;;;;;5049362;28;20268;-65
2021/09/21 05:11:45;;;;;;;12.47;11.27;;;12.40;99.90;;;;;;5042076;28;20188;-65
2021/09/21 05:14:12;;;;;;;11.90;10.73;;;12.30;99.90;;;;;;5034143;28;20647;-65
2021/09/21 05:16:42;;;;;;;11.33;10.43;;;12.30;99.90;;;;;;5043747;28;20225;-66
2021/09/21 05:19:08;;;;;;;11.43;10.43;;;12.30;99.90;;;;;;5053723;28;20221;-65
2021/09/21 05:21:34;;;;;;;11.73;10.53;;;12.20;99.90;;;;;;5044384;28;20215;-65
2021/09/21 05:24:00;;;;;;;11.50;10.60;;;12.30;99.90;;;;;;5034045;28;20175;-65
2021/09/21 05:26:26;;;;;;;11.77;10.87;;;12.30;99.90;;;;;;5040863;28;20237;-64
2021/09/21 05:28:51;;;;;;;11.43;10.43;;;12.30;99.90;;;;;;5053653;28;20637;-65
2021/09/21 05:31:17;;;;;;;10.93;10.03;;;12.30;99.90;;;;;;5047558;28;20211;-64
2021/09/21 05:33:43;;;;;;;11.27;10.33;;;12.20;99.90;;;;;;5032953;28;20167;-64
2021/09/21 05:36:08;;;;;;;11.53;10.33;;;12.20;99.90;;;;;;5037549;28;20232;-64
2021/09/21 05:38:34;;;;;;;12.07;10.80;;;12.20;99.90;;;;;;5051833;28;20203;-65
2021/09/21 05:41:00;;;;;;;12.03;11.03;;;12.20;99.90;;;;;;5032201;28;20250;-64
2021/09/21 05:43:25;;;;;;;12.60;11.33;;;12.20;99.90;;;;;;5033762;28;20907;-64
2021/09/21 05:45:51;;;;;;;12.33;11.13;;;12.20;99.90;;;;;;5052935;28;20209;-64
2021/09/21 05:48:16;;;;;;;14.57;11.33;;;12.20;99.90;;;;;;5051958;28;20195;-64
2021/09/21 05:50:42;;;;;;;11.43;10.30;;;12.30;99.90;;;;;;5034969;28;20553;-64
2021/09/21 05:53:08;;;;;;;11.23;10.17;;;12.40;99.90;;;;;;5033600;28;20652;-64
2021/09/21 05:55:33;;;;;;;11.83;10.77;;;12.40;99.90;;;;;;5049322;28;20187;-64
2021/09/21 05:57:59;;;;;;;11.73;10.63;;;12.40;99.90;;;;;;5053132;28;20187;-65
2021/09/21 06:00:25;;;;;;;12.10;10.97;;;12.40;99.90;;;;;;5037172;28;20553;-64
2021/09/21 06:02:51;;;;;;;10.63;9.77;;;12.40;99.90;;;;;;5031255;28;20203;-65
2021/09/21 06:05:17;;;;;;;11.60;10.30;;;12.40;99.90;;;;;;5045528;28;20206;-64
2021/09/21 06:07:44;;;;;;;11.17;10.17;;;12.40;99.90;;;;;;5052754;28;20194;-64
2021/09/21 06:10:10;;;;;;;10.93;10.03;;;12.50;99.90;;;;;;5041240;28;20206;-65
2021/09/21 06:12:35;;;;;;;11.20;10.00;;;12.50;99.90;;;;;;5032778;28;20163;-64
2021/09/21 06:15:01;;;;;;;10.93;9.93;;;12.40;99.90;;;;;;5042179;28;20214;-64
2021/09/21 06:17:27;;;;;;;10.73;9.70;;;12.40;99.90;;;;;;5052627;28;20218;-64
2021/09/21 06:19:52;;;;;;;11.37;10.47;;;12.40;99.90;;;;;;5044423;28;20714;-65
2021/09/21 06:22:18;;;;;;;12.07;10.90;;;12.40;99.90;;;;;;5033502;28;20258;-65
2021/09/21 06:24:44;;;;;;;10.87;9.77;;;12.40;99.90;;;;;;5038366;28;20224;-65
2021/09/21 06:27:09;;;;;;;10.57;9.77;;;12.50;99.90;;;;;;5052412;28;20186;-65
2021/09/21 06:29:35;;;;;;;10.30;9.33;;;12.50;99.90;;;;;;5047979;28;20206;-65
2021/09/21 06:32:01;;;;;;;12.63;9.97;;;12.50;99.90;;;;;;5033447;28;20176;-64
2021/09/21 06:34:27;;;;;;;10.43;9.33;;;12.60;99.90;;;;;;5049909;28;20661;-64
2021/09/21 06:36:54;;;;;;;10.17;9.17;;;12.60;99.90;;;;;;5032495;28;20206;-64
2021/09/21 06:39:21;;;;;;;9.83;8.90;;;12.70;99.90;;;;;;5012405;28;20184;-64
2021/09/21 06:41:47;;;;;;;9.37;8.57;;;13.00;99.90;;;;;;5015022;28;20660;-65
2021/09/21 06:44:12;;;;;;;9.03;8.33;;;13.40;99.90;;;;;;5055959;28;20258;-64
2021/09/21 06:46:38;;;;;;;10.73;8.43;;;14.10;99.90;;;;;;5056721;28;20209;-64
2021/09/21 06:49:04;;;;;;;7.83;7.20;;;14.70;99.90;;;;;;5035473;28;20179;-64
2021/09/21 06:51:31;;;;;;;8.13;7.33;;;15.40;99.90;;;;;;5032033;28;20179;-61
2021/09/21 06:53:57;;;;;;;7.77;7.17;;;16.20;99.90;;;;;;5047377;28;20241;-61
2021/09/21 06:56:27;;;;;;;8.07;7.43;;;17.00;99.90;;;;;;5037291;28;20180;-62
2021/09/21 06:58:53;;;;;;;7.67;7.07;;;17.50;99.90;;;;;;5031885;28;20286;-62
2021/09/21 07:01:19;;;;;;;6.83;6.30;;;17.80;99.90;;;;;;5044675;28;20301;-62
2021/09/21 07:03:44;;;;;;;8.07;7.37;;;18.00;99.90;;;;;;5051852;28;20178;-65
2021/09/21 07:06:10;;;;;;;7.67;7.07;;;17.90;99.90;;;;;;5036410;28;20203;-62
2021/09/21 07:08:35;;;;;;;9.33;8.43;;;17.90;99.90;;;;;;5031549;28;20188;-62
2021/09/21 07:11:01;;;;;;;8.07;7.33;;;18.10;99.90;;;;;;5045044;28;20171;-62
2021/09/21 07:13:27;;;;;;;8.40;7.47;;;18.30;99.90;;;;;;5051809;28;20547;-64
2021/09/21 07:15:52;;;;;;;8.03;7.37;;;18.70;99.90;;;;;;5039280;28;20236;-62
2021/09/21 07:18:18;;;;;;;8.37;7.60;;;19.10;99.90;;;;;;5031374;28;20207;-62
2021/09/21 07:20:44;;;;;;;7.90;7.20;;;19.50;99.90;;;;;;5041031;28;20353;-61
2021/09/21 07:23:09;;;;;;;8.27;7.50;;;19.70;99.90;;;;;;5051530;28;20185;-61
2021/09/21 07:25:35;;;;;;;8.23;7.45;;;20.00;99.90;;;;;;5042732;28;20278;-62
2021/09/21 07:28:02;;;;;;;7.40;6.70;;;20.20;99.90;;;;;;5033007;28;20217;-62
2021/09/21 07:30:30;;;;;;;9.10;7.63;;;20.40;99.90;;;;;;5050944;28;20182;-61
2021/09/21 07:32:55;;;;;;;7.78;7.07;;;20.80;99.90;;;;;;5049884;28;20174;-62
2021/09/21 07:35:21;;;;;;;7.45;6.90;;;21.20;99.90;;;;;;5031486;28;20183;-63
2021/09/21 07:37:47;;;;;;;7.93;7.13;;;21.60;99.90;;;;;;5031339;28;20218;-62
2021/09/21 07:40:13;;;;;;;7.63;6.93;;;21.80;99.90;;;;;;5032372;28;20525;-63
2021/09/21 07:42:39;;;;;;;8.05;7.25;;;21.80;99.90;;;;;;5031228;28;20187;-62
2021/09/21 07:45:08;;;;;;;7.93;7.20;;;21.90;99.90;;;;;;5048372;28;20178;-62
2021/09/21 07:47:34;;;;;;;7.72;7.03;;;22.10;99.90;;;;;;5050623;28;20646;-62
2021/09/21 07:49:59;;;;;;;7.72;7.13;;;22.30;99.90;;;;;;5035063;28;20179;-63
2021/09/21 07:52:26;;;;;;;7.25;6.63;;;22.60;99.90;;;;;;5031463;28;20225;-63
2021/09/21 07:54:52;;;;;;;7.45;6.40;;;22.80;99.90;;;;;;5045249;28;20202;-63
2021/09/21 07:57:17;;;;;;;10.38;6.00;;;23.10;99.90;;;;;;5039264;28;20272;-63
2021/09/21 07:59:43;;;;;;;7.63;5.97;;;23.00;99.90;;;;;;5030884;28;20168;-63
2021/09/21 08:02:10;;;;;;;6.65;6.18;;;22.70;99.90;;;;;;5041096;28;20201;-63
2021/09/21 08:04:37;;;;;;;6.78;5.95;;;22.60;99.90;;;;;;5050917;28;20640;-63
2021/09/21 08:07:04;;;;;;;7.45;6.68;;;22.40;99.90;;;;;;5046665;28;20268;-63
2021/09/21 08:09:29;;;;;;;6.53;6.00;;;22.30;99.90;;;;;;5050803;28;20302;-63
2021/09/21 08:11:55;;;;;;;8.07;6.35;;;22.10;99.90;;;;;;5044075;28;20203;-63
2021/09/21 08:14:21;;;;;;;6.47;5.80;;;22.10;99.90;;;;;;5031124;28;20237;-63
2021/09/21 08:16:46;;;;;;;6.85;6.35;;;22.30;99.90;;;;;;5035614;28;20238;-63
2021/09/21 08:19:12;;;;;;;7.13;6.50;;;22.30;99.90;;;;;;5050979;28;20181;-63
2021/09/21 08:21:37;;;;;;;6.32;5.82;;;22.30;99.90;;;;;;5047170;28;20210;-63
2021/09/21 08:24:05;;;;;;;6.00;5.43;;;22.30;99.90;;;;;;5031830;28;20707;-63
2021/09/21 08:26:31;;;;;;;5.78;4.90;;;22.40;99.90;;;;;;5050556;28;20684;-63
2021/09/21 08:28:57;;;;;;;5.97;5.47;;;22.90;99.90;;;;;;5053598;28;20174;-63
2021/09/21 08:31:22;;;;;;;5.40;5.00;;;23.00;99.90;;;;;;5040235;28;20589;-63
2021/09/21 08:33:48;;;;;;;5.78;5.20;;;22.90;99.90;;;;;;5053331;28;20216;-63
2021/09/21 08:36:14;;;;;;;6.40;5.90;;;23.00;99.90;;;;;;5040130;28;20175;-63
2021/09/21 08:38:40;;;;;;;5.85;5.30;;;23.20;99.90;;;;;;5054418;28;20182;-63
2021/09/21 08:41:06;;;;;;;5.63;5.22;;;23.70;99.90;;;;;;5036159;28;20187;-63
2021/09/21 08:43:31;;;;;;;5.20;4.75;;;23.90;99.90;;;;;;5034388;28;20270;-63
2021/09/21 08:45:57;;;;;;;5.00;4.70;;;24.00;99.90;;;;;;5050454;28;20214;-62
2021/09/21 08:48:24;;;;;;;5.13;4.68;;;24.30;99.90;;;;;;5054495;28;20194;-63
2021/09/21 08:50:49;;;;;;;5.82;5.13;;;24.20;99.90;;;;;;5038900;28;20206;-63
2021/09/21 08:53:15;;;;;;;5.25;4.85;;;24.40;99.90;;;;;;5044391;28;20167;-63
2021/09/21 08:55:41;;;;;;;5.47;4.95;;;24.10;99.90;;;;;;5054147;28;20175;-63
2021/09/21 08:58:06;;;;;;;5.35;4.90;;;24.50;99.90;;;;;;5045400;28;20265;-63
2021/09/21 09:00:33;;;;;;;5.70;4.50;;;23.90;99.90;;;;;;5033336;28;20176;-63
2021/09/21 09:03:11;;;;;;;5.07;4.57;;;24.00;99.90;;;;;;5040595;28;20240;-63
2021/09/21 09:05:48;;;;;;;4.75;4.38;;;24.00;99.90;;;;;;5053754;28;20279;-63
2021/09/21 09:08:26;;;;;;;4.88;4.47;;;24.00;99.90;;;;;;5045477;28;20210;-62
2021/09/21 09:10:51;;;;;;;5.50;5.10;;;24.50;99.90;;;;;;5033469;28;20508;-63
2021/09/21 09:13:18;;;;;;;6.15;5.30;;;24.20;99.90;;;;;;5041950;28;20183;-63
2021/09/21 09:15:54;;;;;;;6.63;5.68;;;23.60;99.90;;;;;;5053112;28;20262;-63
2021/09/21 09:18:27;;;;;;;6.90;4.90;;;23.50;99.90;;;;;;5045376;28;20265;-63
2021/09/21 09:20:53;;;;;;;5.38;4.68;;;23.80;99.90;;;;;;5039746;28;20244;-63
2021/09/21 09:23:19;;;;;;;6.82;4.70;;;24.00;99.90;;;;;;5053953;28;20574;-63
2021/09/21 09:25:47;;;;;;;5.47;4.97;;;24.30;99.90;;;;;;5048702;28;20282;-63
2021/09/21 09:28:18;;;;;;;6.65;5.07;;;24.40;99.90;;;;;;5033714;28;20275;-62
2021/09/21 09:30:44;;;;;;;6.45;4.75;;;24.40;99.90;;;;;;5037146;28;20194;-63
2021/09/21 09:33:10;;;;;;;5.45;5.03;;;24.50;99.90;;;;;;5052767;28;20345;-63
2021/09/21 09:35:38;;;;;;;6.82;5.22;;;24.60;99.90;;;;;;5050775;28;20191;-63
2021/09/21 09:38:06;;;;;;;5.65;5.15;;;24.70;99.90;;;;;;5033722;28;20278;-63
2021/09/21 09:40:40;;;;;;;5.68;5.15;;;24.80;99.90;;;;;;5033742;28;20207;-63
2021/09/21 09:43:05;;;;;;;5.60;5.20;;;24.60;99.90;;;;;;5053546;28;20173;-63
2021/09/21 09:45:35;;;;;;;6.57;4.93;;;24.90;99.90;;;;;;5052235;28;20289;-63
2021/09/21 09:48:00;;;;;;;5.15;4.75;;;24.90;99.90;;;;;;5033466;28;20196;-63
2021/09/21 09:50:31;;;;;;;6.35;5.40;;;24.60;99.90;;;;;;5051365;28;20195;-63
2021/09/21 09:53:06;;;;;;;5.15;4.75;;;24.40;99.90;;;;;;5053111;28;20175;-63
2021/09/21 09:55:33;;;;;;;5.95;5.28;;;24.80;99.90;;;;;;5034523;28;20680;-63
2021/09/21 09:58:00;;;;;;;6.53;5.28;;;24.60;99.90;;;;;;5033124;28;20294;-63
2021/09/21 10:00:26;;;;;;;6.53;5.97;;;24.60;99.90;;;;;;5048843;28;20313;-63
2021/09/21 10:02:53;;;;;;;5.70;5.30;;;24.60;99.90;;;;;;5052667;28;20708;-63
2021/09/21 10:05:19;;;;;;;7.03;5.15;;;24.50;99.90;;;;;;5052316;28;20236;-63
2021/09/21 10:07:46;;;;;;;6.30;5.00;;;24.30;99.90;;;;;;5052750;28;20581;-63
2021/09/21 10:10:12;;;;;;;5.22;4.80;;;23.70;99.90;;;;;;5038066;28;20514;-63
2021/09/21 10:12:38;;;;;;;6.03;5.55;;;23.50;99.90;;;;;;5032638;28;20172;-63
2021/09/21 10:15:06;;;;;;;5.38;4.88;;;23.50;99.90;;;;;;5033949;28;20188;-63
2021/09/21 10:17:33;;;;;;;5.63;5.10;;;23.60;99.90;;;;;;5032650;28;20211;-63
2021/09/21 10:19:59;;;;;;;5.47;5.07;;;23.90;99.90;;;;;;5043722;28;20181;-63
2021/09/21 10:22:30;;;;;;;5.05;4.75;;;23.90;99.90;;;;;;5052662;28;20637;-63
2021/09/21 10:25:12;;;;;;;5.82;5.43;;;23.90;99.90;;;;;;5041982;28;20175;-63
2021/09/21 10:27:39;;;;;;;6.13;5.63;;;24.40;99.90;;;;;;5032756;28;20286;-64
2021/09/21 10:30:07;;;;;;;6.72;4.90;;;24.70;99.90;;;;;;5042910;28;20616;-63
2021/09/21 10:32:43;;;;;;;5.13;4.65;;;24.60;99.90;;;;;;5051616;28;20175;-64
2021/09/21 10:35:11;;;;;;;5.78;5.25;;;24.60;99.90;;;;;;5032604;28;20207;-64
2021/09/21 10:37:36;;;;;;;5.55;5.15;;;24.50;99.90;;;;;;5032169;28;20203;-63
2021/09/21 10:40:04;;;;;;;5.88;5.25;;;24.60;99.90;;;;;;5050060;28;20170;-63
2021/09/21 10:42:30;;;;;;;5.35;4.95;;;25.20;99.90;;;;;;5048294;28;20716;-63
2021/09/21 10:45:02;;;;;;;5.82;5.32;;;25.30;99.90;;;;;;5031990;28;20176;-63
2021/09/21 10:47:40;;;;;;;5.25;4.95;;;25.80;99.90;;;;;;5034907;28;20291;-63
2021/09/21 10:50:16;;;;;;;6.32;5.55;;;25.90;99.90;;;;;;5051972;28;20170;-63
2021/09/21 10:52:42;;;;;;;6.10;5.70;;;25.20;99.90;;;;;;5048137;28;20250;-63
2021/09/21 10:55:12;;;;;;;6.32;5.40;;;24.50;99.90;;;;;;5032432;28;20194;-63
2021/09/21 10:57:44;;;;;;;5.55;5.15;;;24.10;99.90;;;;;;5034459;28;20543;-61
2021/09/21 11:00:21;;;;;;;5.88;5.25;;;24.00;99.90;;;;;;5051616;28;20175;-63
2021/09/21 11:02:49;;;;;;;6.60;5.70;;;23.60;99.90;;;;;;5048159;28;20171;-62
2021/09/21 11:05:17;;;;;;;5.10;4.70;;;23.50;99.90;;;;;;5031907;28;20192;-63
2021/09/21 11:08:17;;;;;;;5.57;5.18;;;23.90;99.90;;;;;;5032732;28;20187;-63
2021/09/21 11:10:44;;;;;;;6.72;6.13;;;24.30;99.90;;;;;;5019121;28;20184;-63
2021/09/21 11:13:13;;;;;;;5.50;5.07;;;25.10;99.90;;;;;;5036776;28;20636;-63
2021/09/21 11:15:40;;;;;;;5.65;5.22;;;25.40;99.90;;;;;;5051661;28;20183;-63
2021/09/21 11:18:08;;;;;;;5.40;4.90;;;25.60;99.90;;;;;;5047953;28;20240;-63
2021/09/21 11:20:56;;;;;;;6.22;5.35;;;25.90;99.90;;;;;;5031268;28;20744;-64
2021/09/21 11:23:25;;;;;;;6.28;5.43;;;25.60;99.90;;;;;;5036900;28;20214;-64
2021/09/21 11:25:52;;;;;;;5.88;5.47;;;25.80;99.90;;;;;;5051258;28;20187;-64
2021/09/21 11:28:18;;;;;;;5.80;4.93;;;25.70;98.80;;;;;;5047208;28;20222;-63
2021/09/21 11:30:45;;;;;;;5.38;5.00;;;25.20;99.90;;;;;;5030278;28;20178;-63
2021/09/21 11:33:26;;;;;;;5.93;5.43;;;24.60;99.90;;;;;;5033696;28;21539;-63
2021/09/21 11:35:58;;;;;;;5.13;4.72;;;24.10;99.90;;;;;;5051186;28;20186;-64
2021/09/21 11:38:28;;;;;;;5.85;5.10;;;23.80;99.90;;;;;;5011756;28;20207;-64
2021/09/21 11:40:54;;;;;;;5.68;5.28;;;23.80;99.90;;;;;;5010958;28;20274;-64
2021/09/21 11:43:20;;;;;;;7.28;5.60;;;24.10;99.90;;;;;;5032376;28;20215;-63
2021/09/21 11:45:47;;;;;;;5.97;5.47;;;24.50;99.90;;;;;;5031204;28;20188;-64
2021/09/21 11:48:14;;;;;;;5.78;5.20;;;24.30;99.80;;;;;;5048927;28;20568;-64
2021/09/21 11:50:41;;;;;;;4.78;4.47;;;23.90;99.90;;;;;;5050706;28;20170;-64
2021/09/21 11:53:09;;;;;;;5.50;5.10;;;23.60;99.90;;;;;;5039920;28;20171;-64
2021/09/21 11:55:37;;;;;;;6.25;5.55;;;22.90;99.90;;;;;;5051139;28;20178;-64
2021/09/21 11:58:05;;;;;;;5.90;5.40;;;23.10;99.90;;;;;;5035835;28;20199;-64
2021/09/21 12:00:39;;;;;;;6.20;5.15;;;23.00;99.90;;;;;;5030973;28;20258;-64
2021/09/21 12:03:10;;;;;;;5.85;5.45;;;22.90;99.90;;;;;;5047052;28;20181;-64
2021/09/21 12:05:39;;;;;;;5.82;5.43;;;23.20;99.90;;;;;;5055092;28;20579;-64
2021/09/21 12:08:12;;;;;;;6.15;5.55;;;23.90;99.90;;;;;;5041048;28;20203;-64
2021/09/21 12:10:38;;;;;;;6.05;5.55;;;24.00;99.90;;;;;;5034653;28;20186;-64
2021/09/21 12:13:09;;;;;;;5.30;4.90;;;23.90;99.90;;;;;;5047967;28;20233;-64
2021/09/21 12:15:36;;;;;;;6.25;5.80;;;24.10;99.90;;;;;;5055021;28;20253;-65
2021/09/21 12:18:05;;;;;;;5.75;5.25;;;23.90;99.90;;;;;;5045737;28;20216;-64
2021/09/21 12:20:32;;;;;;;5.90;5.50;;;24.00;99.90;;;;;;5054594;28;20517;-65
2021/09/21 12:23:00;;;;;;;5.78;5.20;;;24.10;99.90;;;;;;5043573;28;20224;-65
2021/09/21 12:25:31;;;;;;;5.60;5.20;;;24.20;99.90;;;;;;5033863;28;20649;-65
2021/09/21 12:27:57;;;;;;;5.95;5.55;;;24.20;99.90;;;;;;5036015;28;20310;-65
2021/09/21 12:30:25;;;;;;;6.93;5.75;;;23.60;99.90;;;;;;5034560;28;20183;-65
2021/09/21 12:33:02;;;;;;;5.68;5.15;;;23.40;99.90;;;;;;5038927;28;20870;-65
2021/09/21 12:35:30;;;;;;;6.05;5.47;;;23.10;99.90;;;;;;5034860;28;20171;-65
2021/09/21 12:38:06;;;;;;;6.05;5.57;;;23.50;99.90;;;;;;5048115;28;20214;-65
2021/09/21 12:40:32;;;;;;;6.38;5.78;;;23.90;99.90;;;;;;5054164;28;20174;-65
2021/09/21 12:43:02;;;;;;;6.10;5.45;;;24.20;99.90;;;;;;5040921;28;20667;-65
2021/09/21 12:45:29;;;;;;;5.68;5.28;;;24.60;99.90;;;;;;5041504;28;20660;-65
2021/09/21 12:47:54;;;;;;;10.82;5.57;;;24.40;99.50;;;;;;5034194;28;20191;-65
2021/09/21 12:50:21;;;;;;;6.53;5.05;;;24.30;99.90;;;;;;5034374;28;20171;-65
2021/09/21 12:52:51;;;;;;;5.38;5.05;;;24.30;99.90;;;;;;5033955;28;20594;-65